Time;durP1;ratioP1;P1;durP2;ratioP2;P2;SDS_P1;SDS_P2;PMS_P1;PMS_P2;Temp;Humidity;BMP_temperature;BMP_pressure;BME280_temperature;BME280_humidity;BME280_pressure;Samples;Min_cycle;Max_cycle;Signal;HPM_P1;HPM_P2
2021/06/15 00:00:14;;;;;;;5.55;2.85;;;16.00;99.90;;;;;;5032793;28;20394;-77
2021/06/15 00:02:40;;;;;;;5.75;2.72;;;15.80;99.90;;;;;;5033070;28;20033;-76
2021/06/15 00:05:09;;;;;;;7.25;3.00;;;15.70;99.90;;;;;;5032973;28;20394;-77
2021/06/15 00:07:34;;;;;;;4.10;2.67;;;15.70;99.90;;;;;;5034404;28;20040;-77
2021/06/15 00:10:00;;;;;;;5.47;3.05;;;15.80;99.90;;;;;;5034590;28;20096;-77
2021/06/15 00:12:26;;;;;;;5.35;2.40;;;16.70;99.90;;;;;;5035959;28;20032;-76
2021/06/15 00:14:51;;;;;;;5.18;2.88;;;15.70;99.90;;;;;;5035246;28;20044;-77
2021/06/15 00:17:17;;;;;;;4.55;2.72;;;16.30;99.90;;;;;;5031703;28;20025;-77
2021/06/15 00:19:43;;;;;;;5.45;2.80;;;16.60;99.90;;;;;;5031581;28;20091;-76
2021/06/15 00:22:08;;;;;;;10.50;3.08;;;16.10;99.90;;;;;;5031994;28;20049;-77
2021/06/15 00:24:34;;;;;;;4.78;2.90;;;15.90;99.90;;;;;;5031866;28;20385;-76
2021/06/15 00:26:59;;;;;;;8.60;2.90;;;16.10;99.90;;;;;;5031724;28;20048;-76
2021/06/15 00:29:25;;;;;;;5.22;2.70;;;16.00;99.90;;;;;;5031915;28;20029;-76
2021/06/15 00:31:51;;;;;;;6.80;2.83;;;15.90;99.90;;;;;;5033393;28;20398;-77
2021/06/15 00:34:16;;;;;;;4.07;2.38;;;17.00;99.90;;;;;;5035836;28;20036;-78
2021/06/15 00:36:42;;;;;;;6.07;2.60;;;16.00;99.90;;;;;;5033172;28;20037;-76
2021/06/15 00:39:07;;;;;;;4.78;2.63;;;15.90;99.90;;;;;;5035055;28;20451;-75
2021/06/15 00:41:33;;;;;;;3.65;2.75;;;15.80;99.90;;;;;;5035663;28;20024;-77
2021/06/15 00:43:59;;;;;;;4.60;2.67;;;16.00;99.90;;;;;;5035980;28;20032;-77
2021/06/15 00:46:24;;;;;;;4.57;2.50;;;16.00;99.90;;;;;;5034891;28;20513;-75
2021/06/15 00:48:50;;;;;;;4.00;2.47;;;16.10;99.90;;;;;;5034476;28;20033;-76
2021/06/15 00:51:16;;;;;;;6.30;2.90;;;15.90;99.90;;;;;;5034544;28;20118;-76
2021/06/15 00:53:42;;;;;;;5.20;2.70;;;15.80;99.90;;;;;;5032563;28;20033;-76
2021/06/15 00:56:08;;;;;;;4.43;2.55;;;15.80;99.90;;;;;;5033175;28;20052;-76
2021/06/15 00:58:34;;;;;;;5.95;3.50;;;15.70;99.90;;;;;;5033502;28;20509;-78
2021/06/15 01:01:00;;;;;;;7.45;2.90;;;15.80;99.90;;;;;;5017634;28;20041;-76
2021/06/15 01:03:28;;;;;;;6.10;2.70;;;15.70;99.90;;;;;;5034312;28;20030;-74
2021/06/15 01:05:55;;;;;;;9.27;2.95;;;15.60;99.90;;;;;;5033200;28;20101;-76
2021/06/15 01:08:45;;;;;;;8.30;2.85;;;15.50;99.90;;;;;;5034740;28;20017;-76
2021/06/15 01:11:35;;;;;;;4.20;2.80;;;15.50;99.90;;;;;;5033788;28;20508;-75
2021/06/15 01:14:34;;;;;;;5.47;3.08;;;15.60;99.90;;;;;;5034762;28;20029;-75
2021/06/15 01:17:08;;;;;;;7.78;2.80;;;15.50;99.90;;;;;;5034345;28;20026;-76
2021/06/15 01:19:36;;;;;;;6.40;3.30;;;15.50;99.90;;;;;;5033971;28;20025;-76
2021/06/15 01:22:25;;;;;;;6.18;3.05;;;15.70;99.90;;;;;;5034550;28;20163;-76
2021/06/15 01:25:10;;;;;;;5.80;3.10;;;15.60;99.90;;;;;;5028898;28;20044;-76
2021/06/15 01:27:50;;;;;;;5.45;3.10;;;15.40;99.90;;;;;;5034974;28;20026;-77
2021/06/15 01:30:17;;;;;;;6.30;2.90;;;15.40;99.90;;;;;;5034257;28;20037;-77
2021/06/15 01:32:58;;;;;;;7.30;3.20;;;15.60;99.90;;;;;;5033569;28;20478;-76
2021/06/15 01:35:26;;;;;;;4.50;3.03;;;16.50;99.90;;;;;;5035342;28;20608;-77
2021/06/15 01:37:58;;;;;;;5.72;3.15;;;15.80;99.90;;;;;;5034380;28;20445;-76
2021/06/15 01:40:32;;;;;;;5.65;3.15;;;16.30;99.90;;;;;;5033254;28;20029;-76
2021/06/15 01:43:03;;;;;;;4.18;2.78;;;15.30;99.90;;;;;;5033901;28;20082;-76
2021/06/15 01:45:36;;;;;;;4.60;2.90;;;15.00;99.90;;;;;;5034027;28;20029;-75
2021/06/15 01:48:28;;;;;;;7.28;3.10;;;14.90;99.90;;;;;;5033605;28;20041;-76
2021/06/15 19:51:45;;;;;;;5.82;2.20;;;24.70;99.90;;;;;;5035756;28;20308;-77
2021/06/15 19:54:11;;;;;;;4.32;2.25;;;23.90;99.90;;;;;;5002573;28;20026;-77
2021/06/15 19:56:37;;;;;;;4.05;2.17;;;23.90;99.90;;;;;;5003010;28;20079;-77
2021/06/15 19:59:03;;;;;;;6.20;1.95;;;23.70;99.90;;;;;;5005022;28;20018;-77
2021/06/15 20:01:28;;;;;;;3.13;1.50;;;23.70;99.90;;;;;;5008697;28;20645;-76
2021/06/15 20:03:54;;;;;;;4.15;2.10;;;23.60;99.90;;;;;;5005920;28;20022;-77
2021/06/15 20:06:20;;;;;;;5.80;1.90;;;23.40;99.90;;;;;;5005560;28;20030;-75
2021/06/15 20:08:47;;;;;;;3.95;2.20;;;23.30;99.90;;;;;;5004189;28;20066;-77
2021/06/15 20:11:13;;;;;;;7.80;1.92;;;23.30;99.90;;;;;;5013488;28;20071;-77
2021/06/15 20:13:39;;;;;;;3.08;2.00;;;23.20;99.90;;;;;;5007807;28;20026;-77
2021/06/15 20:16:09;;;;;;;7.70;2.15;;;23.10;99.90;;;;;;5004704;28;20491;-79
2021/06/15 20:18:43;;;;;;;3.92;2.10;;;22.90;99.90;;;;;;5007482;28;20441;-74
2021/06/15 20:21:10;;;;;;;3.10;2.00;;;22.90;99.90;;;;;;5002742;28;20474;-76
2021/06/15 20:23:36;;;;;;;7.15;1.60;;;22.90;99.90;;;;;;5005090;28;20026;-75
2021/06/15 20:26:11;;;;;;;6.50;1.50;;;22.90;99.90;;;;;;5005157;28;20490;-75
2021/06/15 20:28:42;;;;;;;2.58;1.65;;;22.90;99.90;;;;;;5004873;28;20026;-75
2021/06/15 20:31:07;;;;;;;3.95;2.08;;;22.80;99.90;;;;;;5002543;28;20026;-76
2021/06/15 20:33:33;;;;;;;2.65;1.83;;;22.60;99.90;;;;;;5004266;28;20386;-77
2021/06/15 20:35:59;;;;;;;2.83;1.95;;;22.60;99.90;;;;;;5005049;28;20471;-72
2021/06/15 20:38:25;;;;;;;6.88;1.95;;;22.50;99.90;;;;;;5005087;28;20105;-72
2021/06/15 20:40:50;;;;;;;5.93;1.80;;;22.40;99.90;;;;;;5004845;28;20491;-72
2021/06/15 20:43:17;;;;;;;3.92;1.73;;;22.40;99.90;;;;;;5005385;28;20581;-72
2021/06/15 20:45:42;;;;;;;4.47;1.70;;;22.30;99.90;;;;;;5005109;28;20034;-74
2021/06/15 20:48:08;;;;;;;2.53;1.63;;;22.10;99.90;;;;;;5005370;28;20030;-72
2021/06/15 20:50:34;;;;;;;5.70;1.63;;;21.90;99.90;;;;;;5004039;28;20042;-73
2021/06/15 20:53:00;;;;;;;4.80;1.70;;;21.80;99.90;;;;;;5005181;28;20026;-73
2021/06/15 20:55:25;;;;;;;3.10;1.90;;;21.70;99.90;;;;;;5005350;28;20033;-73
2021/06/15 20:57:51;;;;;;;4.25;1.75;;;21.50;99.90;;;;;;5006883;28;20083;-74
2021/06/15 21:00:17;;;;;;;7.90;2.28;;;21.40;99.90;;;;;;5006784;28;20038;-73
2021/06/15 21:02:45;;;;;;;2.92;1.80;;;21.20;99.90;;;;;;4994585;28;20540;-75
2021/06/15 21:05:12;;;;;;;5.57;1.83;;;21.20;99.90;;;;;;4993999;28;20052;-73
2021/06/15 21:07:38;;;;;;;3.75;1.80;;;21.10;99.90;;;;;;4994359;28;20045;-74
2021/06/15 21:10:05;;;;;;;3.28;1.92;;;21.10;99.90;;;;;;4992656;28;20122;-73
2021/06/15 21:12:30;;;;;;;2.70;1.52;;;21.10;99.90;;;;;;4995648;28;20038;-75
2021/06/15 21:14:56;;;;;;;5.38;1.75;;;21.10;99.90;;;;;;4994564;28;20071;-73
2021/06/15 21:17:22;;;;;;;6.43;2.00;;;21.10;99.90;;;;;;4993237;28;20023;-73
2021/06/15 21:19:48;;;;;;;2.75;1.48;;;21.10;99.90;;;;;;4993465;28;20114;-74
2021/06/15 21:22:17;;;;;;;4.97;2.10;;;20.90;99.90;;;;;;4992043;28;20530;-72
2021/06/15 21:24:42;;;;;;;6.28;1.90;;;20.80;99.90;;;;;;4992272;28;20395;-73
2021/06/15 21:27:08;;;;;;;5.75;2.40;;;20.70;99.90;;;;;;4991899;28;20553;-73
2021/06/15 21:29:34;;;;;;;6.28;2.15;;;20.60;99.90;;;;;;4991002;28;20140;-74
2021/06/15 21:31:59;;;;;;;8.07;1.77;;;20.50;99.90;;;;;;4991636;28;20037;-72
2021/06/15 21:34:25;;;;;;;6.78;1.90;;;20.40;99.90;;;;;;4991495;28;20459;-73
2021/06/15 21:36:51;;;;;;;5.93;1.60;;;20.40;99.90;;;;;;4991300;28;20030;-72
2021/06/15 21:39:18;;;;;;;5.28;2.20;;;20.50;99.90;;;;;;4991100;28;20030;-74
2021/06/15 21:41:45;;;;;;;3.78;2.00;;;20.50;99.90;;;;;;4991475;28;20107;-73
2021/06/15 21:44:11;;;;;;;5.55;2.00;;;20.50;99.90;;;;;;4991288;28;20030;-75
2021/06/15 21:46:37;;;;;;;7.18;1.80;;;20.50;99.90;;;;;;4991264;28;20372;-72
2021/06/15 21:49:04;;;;;;;3.13;1.88;;;20.50;99.90;;;;;;4990632;28;20041;-74
2021/06/15 21:51:30;;;;;;;3.70;1.60;;;20.40;99.90;;;;;;4990939;28;20145;-72
2021/06/15 21:53:56;;;;;;;5.78;1.90;;;20.40;99.90;;;;;;4991070;28;20487;-73
2021/06/15 21:56:21;;;;;;;3.53;1.85;;;20.30;99.90;;;;;;4990685;28;20061;-73
2021/06/15 21:58:47;;;;;;;2.22;1.60;;;20.20;99.90;;;;;;4990854;28;20516;-79
2021/06/15 22:01:13;;;;;;;5.07;2.13;;;20.20;99.90;;;;;;4990968;28;20104;-72
2021/06/15 22:03:39;;;;;;;5.97;2.03;;;20.20;99.90;;;;;;4991021;28;20050;-72
2021/06/15 22:06:06;;;;;;;4.45;1.83;;;20.00;99.90;;;;;;4990869;28;20387;-75
2021/06/15 22:08:32;;;;;;;3.30;1.60;;;20.10;99.90;;;;;;4990670;28;20026;-73
2021/06/15 22:10:58;;;;;;;3.58;1.90;;;20.00;99.90;;;;;;4989498;28;20034;-75
2021/06/15 22:13:24;;;;;;;1.90;1.70;;;19.90;99.90;;;;;;4989951;28;20023;-75
2021/06/15 22:15:50;;;;;;;6.00;2.00;;;19.80;99.90;;;;;;4991028;28;20027;-75
2021/06/15 22:18:15;;;;;;;4.80;1.70;;;19.90;99.90;;;;;;4990897;28;20155;-74
2021/06/15 22:20:41;;;;;;;3.95;1.80;;;19.90;99.90;;;;;;4990201;28;20034;-76
2021/06/15 22:23:07;;;;;;;3.75;1.98;;;19.80;99.90;;;;;;4990901;28;20068;-76
2021/06/15 22:25:33;;;;;;;4.95;2.00;;;20.20;99.90;;;;;;4991084;28;20027;-76
2021/06/15 22:28:01;;;;;;;7.30;1.77;;;19.70;99.90;;;;;;4990943;28;20031;-76
2021/06/15 22:30:26;;;;;;;6.03;1.98;;;19.70;99.90;;;;;;4990460;28;20371;-75
2021/06/15 22:32:55;;;;;;;3.53;1.90;;;19.60;99.90;;;;;;5000248;28;20056;-75
2021/06/15 22:35:26;;;;;;;3.85;2.20;;;19.70;99.90;;;;;;5006027;28;20048;-75
2021/06/15 22:37:52;;;;;;;4.35;2.20;;;19.70;99.90;;;;;;5002936;28;20042;-76
2021/06/15 22:40:17;;;;;;;7.88;1.95;;;19.70;99.90;;;;;;5001857;28;20031;-76
2021/06/15 22:42:43;;;;;;;5.55;1.80;;;19.80;99.90;;;;;;4991933;28;20042;-76
2021/06/15 22:45:12;;;;;;;3.70;1.92;;;19.80;99.90;;;;;;4991164;28;20042;-76
2021/06/15 22:47:38;;;;;;;2.92;1.67;;;19.80;99.90;;;;;;4990806;28;20037;-76
2021/06/15 22:50:09;;;;;;;3.22;1.65;;;19.80;99.90;;;;;;4989942;28;20117;-76
2021/06/15 22:52:35;;;;;;;2.93;1.90;;;19.70;99.90;;;;;;4990346;28;20022;-76
2021/06/15 22:55:01;;;;;;;5.47;1.88;;;20.20;99.90;;;;;;4990111;28;20050;-76
2021/06/15 22:57:27;;;;;;;3.88;1.50;;;19.90;99.90;;;;;;4990210;28;20478;-76
2021/06/15 22:59:52;;;;;;;3.42;1.65;;;20.30;99.90;;;;;;4989750;28;20044;-75
2021/06/15 23:02:18;;;;;;;2.88;1.60;;;19.70;99.90;;;;;;4990283;28;20030;-76
2021/06/15 23:04:43;;;;;;;2.67;2.03;;;19.90;99.90;;;;;;4990321;28;20376;-76
2021/06/15 23:07:09;;;;;;;2.10;1.70;;;19.50;99.90;;;;;;4989986;28;20548;-75
2021/06/15 23:09:35;;;;;;;7.80;2.72;;;19.30;99.90;;;;;;4989687;28;20030;-74
2021/06/15 23:12:01;;;;;;;5.60;1.98;;;19.20;99.90;;;;;;4989927;28;20034;-75
2021/06/15 23:14:26;;;;;;;3.22;1.60;;;19.10;99.90;;;;;;4990210;28;20071;-76
2021/06/15 23:16:52;;;;;;;5.03;2.08;;;19.00;99.90;;;;;;4990084;28;20390;-76
2021/06/15 23:19:18;;;;;;;5.75;1.90;;;18.90;99.90;;;;;;4989588;28;20026;-76
2021/06/15 23:21:43;;;;;;;5.03;1.85;;;18.80;99.90;;;;;;4989801;28;20030;-75
2021/06/15 23:24:09;;;;;;;6.68;2.22;;;18.80;99.90;;;;;;4989631;28;20568;-76
2021/06/15 23:26:35;;;;;;;3.03;2.08;;;18.80;99.90;;;;;;4989802;28;20034;-76
2021/06/15 23:29:00;;;;;;;10.70;2.00;;;19.00;99.90;;;;;;4989515;28;20026;-76
2021/06/15 23:31:26;;;;;;;5.57;2.08;;;19.50;99.90;;;;;;4989812;28;20386;-76
2021/06/15 23:33:52;;;;;;;3.35;1.80;;;18.70;99.90;;;;;;4988804;28;20391;-74
2021/06/15 23:36:17;;;;;;;4.72;2.20;;;18.90;99.90;;;;;;4989695;28;20394;-76
2021/06/15 23:38:43;;;;;;;3.95;1.77;;;18.80;99.90;;;;;;4988697;28;20027;-76
2021/06/15 23:41:09;;;;;;;4.40;2.20;;;18.70;99.90;;;;;;4989337;28;20037;-76
2021/06/15 23:43:35;;;;;;;6.18;1.73;;;18.60;99.90;;;;;;4989827;28;20402;-75
2021/06/15 23:46:00;;;;;;;4.22;1.60;;;18.70;99.90;;;;;;4989614;28;20386;-76
2021/06/15 23:48:26;;;;;;;6.50;2.20;;;18.70;99.90;;;;;;4989804;28;20045;-74
2021/06/15 23:50:52;;;;;;;5.75;1.98;;;18.70;99.90;;;;;;4988369;28;20038;-76
2021/06/15 23:53:17;;;;;;;5.35;1.80;;;18.60;99.90;;;;;;4989474;28;20399;-75
2021/06/15 23:55:43;;;;;;;3.08;1.95;;;18.70;99.90;;;;;;4989423;28;20070;-75
2021/06/15 23:58:09;;;;;;;2.97;2.17;;;18.70;99.90;;;;;;4989705;28;20437;-75
